Aeroporto :
LOGIN :

Iscrizione | Disclaimer

   EN    FR    IT 

 










Sommario :    VFR   VFR Marginale   IFR   IFR Intensivo   IFR Molto Intensivo
Visibilità : 
Base nubi : 
>= 8 km
>= 3000ft
5 / 8 km
1000 / 3000 ft
1500m / 5 km
500 / 1000 ft
800 / 1500m
200 / 500 ft
< 800m
< 200 ft
Simboli :   Temporali  Nebbia  Neve Forte  Precipitazioni Forti  Vento > 20 kt
SIGMETs :   Varie  Temporali  Ghiacco  Turbolenza  Onda orograficha  Ceneri Vulcaniche







- Altitudine del aeroporto : 138 ft
- Codice IATA : RLG


ETNL - Rostock Laage

ULTIMO METAR :
  • 191420Z 08013KT 9999 18/M01 Q1034 BLU+

METARs OBSOLETI :
  • 191320Z 08013KT 9999 19/02 Q1034 BLU+
  • 191220Z 07012KT 9999 19/04 Q1034 BLU+
  • 191120Z 07010KT 9999 19/05 Q1034 BLU+

TAF TAF ETNL
Valido dal 19 a 11 ore il 19 a 23 ore UTC


191000Z 1911/1923 08012KT 9999 NSW SKC BY ETGL
Nessun NOTAM noto per questo aeroporto.



MetMap, La meteo Aeronautica in un colpo d'occhio ! - Copyright ORBIFLY Dicembre 2007 - Disclaimer

ORBIFLY MET'MAP TEAM :

Programmazione e sviluppo : Alexandra Zaïnal
Concezione e sviluppo : Baudouin d'Aumeries
Co-Programmazione e sviluppo : Marc-Olivier Méhu
Supporto tecnico e logistico : Manuel Goepfert
Aiuto per la traduzione : Arnaldo La Scala

Contatto : metmap@orbifly.com




FONTI E CREDITI :

   NOAA